Persia, Iowa
Current Conditions -  °F | °C
As of 4:15 PM on Saturday 20 Dec 2014 (Local Time) from KHNR Reporting Station
Haze Haze  
Wind Chill: 27°   Ceiling: 600
Heat Index: 34°   Visibility: 5mi
Dew Point: 34°   Wind: 8mph
Humidity: 100%   Direction: 160°SSE
Pressure: 30.12"   Gusts: NA
Location:  41.58°N, 95.57°W
Report Text: KHNR 202215Z AUTO 16007KT 5SM BR OVC006 01/01 A3012 RMK AO2
Loading
Personal Weather Stations






























Interactive Weather Map New forecast layout! Learn more

10-Day Weather Forecast

Advertisements
Track Severe Weather on mobile